Michipicoten — CFG8060 — position and weather

sailwx.info

Track history (hours):
 
Tides and Currents Weather Stations Pressure Air Temp Water Temp Dewpoint Dewpoint Depression Visibility Wind Speed Wind Dir Waves Ship Positions

Michipicoten

Last reported at 2017-Aug-17 05:55 UTC. Time now 2017-Aug-19 05:34 UTC.
Position N 46°27' W 084°32'.

Length 213 m; draft 7.4 m.

Type: Ship. MMSI: 316002501.

Date/timePositionNaut miles runAvg speedWind from/ knotsBaromVisibWave heightAir tempDewpointWater temp
2017-Aug-17 05:55N 46°27' W 084°32'610.7
2017-Aug-17 05:21N 46°30' W 084°24'1 3.5
2017-Aug-17 04:57N 46°31' W 084°23'0 0.0
2017-Aug-17 04:31N 46°31' W 084°23'0 0.0
2017-Aug-17 03:44N 46°31' W 084°23'0 0.0
2017-Aug-17 03:29N 46°31' W 084°23'3 0.1
2017-Aug-15 12:14N 46°30' W 084°19'2 6.8
2017-Aug-15 11:59N 46°28' W 084°17'3 7.3
2017-Aug-15 11:30N 46°25' W 084°15'12 7.9
2017-Aug-15 09:57N 46°15' W 084°06'4 8.8
2017-Aug-15 09:30N 46°11' W 084°05'710.7
2017-Aug-15 08:51N 46°04' W 084°01'412.3
2017-Aug-15 08:30N 46°03' W 083°55'510.7
2017-Aug-15 08:00N 45°57' W 083°53'712.6
2017-Aug-15 07:28N 45°51' W 083°49'612.8
2017-Aug-15 06:59N 45°46' W 083°44'612.5
2017-Aug-15 06:30N 45°41' W 083°40'612.9
2017-Aug-15 06:00N 45°35' W 083°35'713.2
2017-Aug-15 05:30N 45°29' W 083°31'612.1
2017-Aug-15 05:00N 45°24' W 083°27'5 0.4
2017-Aug-14 16:32N 45°19' W 083°25'0 6.0
2017-Aug-14 16:30N 45°19' W 083°25'3 5.8
2017-Aug-14 16:00N 45°22' W 083°27'3 6.2
2017-Aug-14 15:30N 45°25' W 083°29'3 6.9
2017-Aug-14 15:00N 45°28' W 083°31'3 6.7
2017-Aug-14 14:30N 45°31' W 083°33'4 7.9
2017-Aug-14 14:00N 45°34' W 083°36'713.9
2017-Aug-14 13:30N 45°40' W 083°41'714.1
2017-Aug-14 13:00N 45°46' W 083°45'713.9
2017-Aug-14 12:30N 45°53' W 083°50'713.2
2017-Aug-14 12:00N 45°59' W 083°53'612.2
2017-Aug-14 11:30N 46°04' W 083°59'611.7
2017-Aug-14 11:00N 46°09' W 084°02'612.4
2017-Aug-14 10:30N 46°13' W 084°09'4 8.4
2017-Aug-14 09:59N 46°17' W 084°12'4 8.3
2017-Aug-14 09:30N 46°21' W 084°13'4 8.8
2017-Aug-14 09:00N 46°25' W 084°15'8 4.1
2017-Aug-14 07:06N 46°30' W 084°23'1 3.3
2017-Aug-14 06:46N 46°30' W 084°24'2 6.9
2017-Aug-14 06:30N 46°31' W 084°23'0 0.3
2017-Aug-14 06:00N 46°31' W 084°23'0 0.0
2017-Aug-14 05:30N 46°31' W 084°23'0 0.0
2017-Aug-14 05:00N 46°31' W 084°23'0 0.0
2017-Aug-14 04:30N 46°31' W 084°23'0 0.0
2017-Aug-14 03:57N 46°31' W 084°23'28511.5
2017-Aug-13 03:16N 46°59' W 091°16'1513.4
2017-Aug-13 02:08N 46°52' W 091°35'213.2
2017-Aug-13 02:00N 46°51' W 091°38'713.4
2017-Aug-13 01:31N 46°48' W 091°46'713.4
2017-Aug-13 01:00N 46°45' W 091°55'510.3
2017-Aug-13 00:31N 46°42' W 092°01'0 1.0
2017-Aug-13 00:01N 46°42' W 092°01'0 0.0
2017-Aug-12 23:30N 46°42' W 092°01'0 0.0
2017-Aug-12 23:01N 46°42' W 092°01'0 0.0
2017-Aug-12 22:31N 46°42' W 092°01'0 0.0
2017-Aug-12 22:01N 46°42' W 092°01'0 0.0
2017-Aug-12 21:31N 46°42' W 092°01'0 0.0
2017-Aug-12 21:01N 46°42' W 092°01'1 1.3
2017-Aug-12 20:31N 46°42' W 092°01'510.3
2017-Aug-12 20:01N 46°45' W 091°54'612.2
2017-Aug-12 19:30N 46°48' W 091°46'612.4
2017-Aug-12 19:00N 46°50' W 091°38'  
2017-Aug-09 14:11N 46°41' W 086°30'213.8
2017-Aug-09 14:00N 46°42' W 086°27'8011.7
2017-Aug-09 07:09N 46°27' W 084°32'310.6
2017-Aug-09 06:51N 46°28' W 084°28'5 2.1
2017-Aug-09 04:40N 46°31' W 084°23'29810.8
2017-Aug-08 01:05N 46°52' W 091°35'113.1
2017-Aug-08 01:00N 46°51' W 091°37'613.0
2017-Aug-08 00:31N 46°48' W 091°45'612.8
2017-Aug-08 00:01N 46°45' W 091°53'612.0
2017-Aug-07 23:31N 46°42' W 092°01'1 1.1
2017-Aug-07 22:59N 46°42' W 092°01'0 0.0
2017-Aug-07 22:30N 46°42' W 092°01'0 0.0
2017-Aug-07 22:00N 46°42' W 092°01'0 0.0
2017-Aug-07 21:31N 46°42' W 092°01'0 0.0
2017-Aug-07 21:01N 46°42' W 092°01'0 0.0
2017-Aug-07 20:30N 46°42' W 092°01'0 0.0
2017-Aug-07 20:00N 46°42' W 092°01'0 0.0
2017-Aug-07 19:30N 46°42' W 092°01'0 0.0
2017-Aug-07 19:00N 46°42' W 092°01'0 0.0
2017-Aug-07 18:30N 46°42' W 092°01'0 0.0
2017-Aug-07 18:00N 46°42' W 092°01'0 0.0
2017-Aug-07 17:30N 46°42' W 092°01'0 0.0
2017-Aug-07 17:00N 46°42' W 092°01'0 0.0
2017-Aug-07 16:30N 46°42' W 092°01'0 0.0
2017-Aug-07 16:00N 46°42' W 092°01'0 0.0
2017-Aug-07 15:30N 46°42' W 092°01'0 0.0
2017-Aug-07 15:00N 46°42' W 092°01'0 0.0
2017-Aug-07 14:30N 46°42' W 092°01'0 0.7
2017-Aug-07 14:00N 46°42' W 092°01'1 2.0
2017-Aug-07 13:31N 46°43' W 092°02'1 1.2
2017-Aug-07 13:01N 46°43' W 092°03'1 2.5
2017-Aug-07 12:30N 46°44' W 092°04'2 3.2
2017-Aug-07 12:00N 46°45' W 092°06'0 0.3
2017-Aug-07 11:31N 46°45' W 092°06'0 0.1
2017-Aug-07 11:00N 46°45' W 092°06'0 0.0
2017-Aug-07 10:31N 46°45' W 092°06'0 0.0
2017-Aug-07 10:01N 46°45' W 092°06'0 0.0
2017-Aug-07 09:31N 46°45' W 092°06'0 0.0
2017-Aug-07 09:01N 46°45' W 092°06'0 0.0
2017-Aug-07 08:30N 46°45' W 092°06'0 0.0
2017-Aug-07 08:00N 46°45' W 092°06'0 0.0
2017-Aug-07 07:31N 46°45' W 092°06'0 0.0
2017-Aug-07 07:01N 46°45' W 092°06'0 0.0
2017-Aug-07 06:30N 46°45' W 092°06'0 0.0
2017-Aug-07 06:00N 46°45' W 092°06'  
Track history (hours):
 
Tides and Currents Weather Stations Pressure Air Temp Water Temp Dewpoint Dewpoint Depression Visibility Wind Speed Wind Dir Waves Ship Positions

Michipicoten

Last reported at 2017-Aug-17 05:55 UTC. Time now 2017-Aug-19 05:34 UTC.
Position N 46°27' W 084°32'.

Length 213 m; draft 7.4 m.

Type: Ship. MMSI: 316002501.

Date/timePositionNaut miles runAvg speedWind from/ knotsBaromVisibWave heightAir tempDewpointWater temp
2017-Aug-17 05:55N 46°27' W 084°32'610.7
2017-Aug-17 05:21N 46°30' W 084°24'1 3.5
2017-Aug-17 04:57N 46°31' W 084°23'0 0.0
2017-Aug-17 04:31N 46°31' W 084°23'0 0.0
2017-Aug-17 03:44N 46°31' W 084°23'0 0.0
2017-Aug-17 03:29N 46°31' W 084°23'3 0.1
2017-Aug-15 12:14N 46°30' W 084°19'2 6.8
2017-Aug-15 11:59N 46°28' W 084°17'3 7.3
2017-Aug-15 11:30N 46°25' W 084°15'12 7.9
2017-Aug-15 09:57N 46°15' W 084°06'4 8.8
2017-Aug-15 09:30N 46°11' W 084°05'710.7
2017-Aug-15 08:51N 46°04' W 084°01'412.3
2017-Aug-15 08:30N 46°03' W 083°55'510.7
2017-Aug-15 08:00N 45°57' W 083°53'712.6
2017-Aug-15 07:28N 45°51' W 083°49'612.8
2017-Aug-15 06:59N 45°46' W 083°44'612.5
2017-Aug-15 06:30N 45°41' W 083°40'612.9
2017-Aug-15 06:00N 45°35' W 083°35'713.2
2017-Aug-15 05:30N 45°29' W 083°31'612.1
2017-Aug-15 05:00N 45°24' W 083°27'5 0.4
2017-Aug-14 16:32N 45°19' W 083°25'0 6.0
2017-Aug-14 16:30N 45°19' W 083°25'3 5.8
2017-Aug-14 16:00N 45°22' W 083°27'3 6.2
2017-Aug-14 15:30N 45°25' W 083°29'3 6.9
2017-Aug-14 15:00N 45°28' W 083°31'3 6.7
2017-Aug-14 14:30N 45°31' W 083°33'4 7.9
2017-Aug-14 14:00N 45°34' W 083°36'713.9
2017-Aug-14 13:30N 45°40' W 083°41'714.1
2017-Aug-14 13:00N 45°46' W 083°45'713.9
2017-Aug-14 12:30N 45°53' W 083°50'713.2
2017-Aug-14 12:00N 45°59' W 083°53'612.2
2017-Aug-14 11:30N 46°04' W 083°59'611.7
2017-Aug-14 11:00N 46°09' W 084°02'612.4
2017-Aug-14 10:30N 46°13' W 084°09'4 8.4
2017-Aug-14 09:59N 46°17' W 084°12'4 8.3
2017-Aug-14 09:30N 46°21' W 084°13'4 8.8
2017-Aug-14 09:00N 46°25' W 084°15'8 4.1
2017-Aug-14 07:06N 46°30' W 084°23'1 3.3
2017-Aug-14 06:46N 46°30' W 084°24'2 6.9
2017-Aug-14 06:30N 46°31' W 084°23'0 0.3
2017-Aug-14 06:00N 46°31' W 084°23'0 0.0
2017-Aug-14 05:30N 46°31' W 084°23'0 0.0
2017-Aug-14 05:00N 46°31' W 084°23'0 0.0
2017-Aug-14 04:30N 46°31' W 084°23'0 0.0
2017-Aug-14 03:57N 46°31' W 084°23'28511.5
2017-Aug-13 03:16N 46°59' W 091°16'1513.4
2017-Aug-13 02:08N 46°52' W 091°35'213.2
2017-Aug-13 02:00N 46°51' W 091°38'713.4
2017-Aug-13 01:31N 46°48' W 091°46'713.4
2017-Aug-13 01:00N 46°45' W 091°55'510.3
2017-Aug-13 00:31N 46°42' W 092°01'0 1.0
2017-Aug-13 00:01N 46°42' W 092°01'0 0.0
2017-Aug-12 23:30N 46°42' W 092°01'0 0.0
2017-Aug-12 23:01N 46°42' W 092°01'0 0.0
2017-Aug-12 22:31N 46°42' W 092°01'0 0.0
2017-Aug-12 22:01N 46°42' W 092°01'0 0.0
2017-Aug-12 21:31N 46°42' W 092°01'0 0.0
2017-Aug-12 21:01N 46°42' W 092°01'1 1.3
2017-Aug-12 20:31N 46°42' W 092°01'510.3
2017-Aug-12 20:01N 46°45' W 091°54'612.2
2017-Aug-12 19:30N 46°48' W 091°46'612.4
2017-Aug-12 19:00N 46°50' W 091°38'  
2017-Aug-09 14:11N 46°41' W 086°30'213.8
2017-Aug-09 14:00N 46°42' W 086°27'8011.7
2017-Aug-09 07:09N 46°27' W 084°32'310.6
2017-Aug-09 06:51N 46°28' W 084°28'5 2.1
2017-Aug-09 04:40N 46°31' W 084°23'29810.8
2017-Aug-08 01:05N 46°52' W 091°35'113.1
2017-Aug-08 01:00N 46°51' W 091°37'613.0
2017-Aug-08 00:31N 46°48' W 091°45'612.8
2017-Aug-08 00:01N 46°45' W 091°53'612.0
2017-Aug-07 23:31N 46°42' W 092°01'1 1.1
2017-Aug-07 22:59N 46°42' W 092°01'0 0.0
2017-Aug-07 22:30N 46°42' W 092°01'0 0.0
2017-Aug-07 22:00N 46°42' W 092°01'0 0.0
2017-Aug-07 21:31N 46°42' W 092°01'0 0.0
2017-Aug-07 21:01N 46°42' W 092°01'0 0.0
2017-Aug-07 20:30N 46°42' W 092°01'0 0.0
2017-Aug-07 20:00N 46°42' W 092°01'0 0.0
2017-Aug-07 19:30N 46°42' W 092°01'0 0.0
2017-Aug-07 19:00N 46°42' W 092°01'0 0.0
2017-Aug-07 18:30N 46°42' W 092°01'0 0.0
2017-Aug-07 18:00N 46°42' W 092°01'0 0.0
2017-Aug-07 17:30N 46°42' W 092°01'0 0.0
2017-Aug-07 17:00N 46°42' W 092°01'0 0.0
2017-Aug-07 16:30N 46°42' W 092°01'0 0.0
2017-Aug-07 16:00N 46°42' W 092°01'0 0.0
2017-Aug-07 15:30N 46°42' W 092°01'0 0.0
2017-Aug-07 15:00N 46°42' W 092°01'0 0.0
2017-Aug-07 14:30N 46°42' W 092°01'0 0.7
2017-Aug-07 14:00N 46°42' W 092°01'1 2.0
2017-Aug-07 13:31N 46°43' W 092°02'1 1.2
2017-Aug-07 13:01N 46°43' W 092°03'1 2.5
2017-Aug-07 12:30N 46°44' W 092°04'2 3.2
2017-Aug-07 12:00N 46°45' W 092°06'0 0.3
2017-Aug-07 11:31N 46°45' W 092°06'0 0.1
2017-Aug-07 11:00N 46°45' W 092°06'0 0.0
2017-Aug-07 10:31N 46°45' W 092°06'0 0.0
2017-Aug-07 10:01N 46°45' W 092°06'0 0.0
2017-Aug-07 09:31N 46°45' W 092°06'0 0.0
2017-Aug-07 09:01N 46°45' W 092°06'0 0.0
2017-Aug-07 08:30N 46°45' W 092°06'0 0.0
2017-Aug-07 08:00N 46°45' W 092°06'0 0.0
2017-Aug-07 07:31N 46°45' W 092°06'0 0.0
2017-Aug-07 07:01N 46°45' W 092°06'0 0.0
2017-Aug-07 06:30N 46°45' W 092°06'0 0.0
2017-Aug-07 06:00N 46°45' W 092°06'  

Dump ship's entire track history